sensor_id;sensor_type;location;lat;lon;timestamp;P1;durP1;ratioP1;P2;durP2;ratioP2
64060;SDS011;60147;55.036;73.242;2024-02-28T00:00:42;37.30;;;17.38;;
64060;SDS011;60147;55.036;73.242;2024-02-28T00:03:08;31.20;;;17.58;;
64060;SDS011;60147;55.036;73.242;2024-02-28T00:05:34;38.50;;;16.70;;
64060;SDS011;60147;55.036;73.242;2024-02-28T00:08:00;39.10;;;18.45;;
64060;SDS011;60147;55.036;73.242;2024-02-28T00:10:25;29.02;;;15.18;;
64060;SDS011;60147;55.036;73.242;2024-02-28T00:12:51;33.13;;;16.90;;
64060;SDS011;60147;55.036;73.242;2024-02-28T00:15:17;32.67;;;15.75;;
64060;SDS011;60147;55.036;73.242;2024-02-28T00:17:43;30.33;;;15.75;;
64060;SDS011;60147;55.036;73.242;2024-02-28T00:20:09;32.47;;;16.25;;
64060;SDS011;60147;55.036;73.242;2024-02-28T00:22:36;34.35;;;15.18;;
64060;SDS011;60147;55.036;73.242;2024-02-28T00:25:05;37.88;;;16.98;;
64060;SDS011;60147;55.036;73.242;2024-02-28T00:27:32;40.15;;;18.63;;
64060;SDS011;60147;55.036;73.242;2024-02-28T00:29:59;43.72;;;17.88;;
64060;SDS011;60147;55.036;73.242;2024-02-28T00:32:25;38.38;;;17.15;;
64060;SDS011;60147;55.036;73.242;2024-02-28T00:34:51;31.27;;;15.88;;
64060;SDS011;60147;55.036;73.242;2024-02-28T00:37:17;36.40;;;16.35;;
64060;SDS011;60147;55.036;73.242;2024-02-28T00:39:44;32.75;;;16.20;;
64060;SDS011;60147;55.036;73.242;2024-02-28T00:42:10;27.88;;;14.85;;
64060;SDS011;60147;55.036;73.242;2024-02-28T00:44:36;29.13;;;14.10;;
64060;SDS011;60147;55.036;73.242;2024-02-28T00:47:02;39.17;;;16.17;;
64060;SDS011;60147;55.036;73.242;2024-02-28T00:49:28;29.77;;;14.48;;
64060;SDS011;60147;55.036;73.242;2024-02-28T00:51:54;30.70;;;14.45;;
64060;SDS011;60147;55.036;73.242;2024-02-28T00:54:20;32.90;;;14.25;;
64060;SDS011;60147;55.036;73.242;2024-02-28T00:56:47;29.08;;;13.23;;
64060;SDS011;60147;55.036;73.242;2024-02-28T00:59:13;29.63;;;14.05;;
64060;SDS011;60147;55.036;73.242;2024-02-28T01:01:39;26.55;;;14.13;;
64060;SDS011;60147;55.036;73.242;2024-02-28T01:04:06;27.77;;;13.18;;
64060;SDS011;60147;55.036;73.242;2024-02-28T01:06:33;27.15;;;14.40;;
64060;SDS011;60147;55.036;73.242;2024-02-28T01:08:59;29.33;;;13.55;;
64060;SDS011;60147;55.036;73.242;2024-02-28T01:11:25;30.00;;;14.43;;
64060;SDS011;60147;55.036;73.242;2024-02-28T01:14:09;25.58;;;12.75;;
64060;SDS011;60147;55.036;73.242;2024-02-28T01:16:53;24.65;;;12.65;;
64060;SDS011;60147;55.036;73.242;2024-02-28T01:19:19;30.27;;;12.85;;
64060;SDS011;60147;55.036;73.242;2024-02-28T01:21:45;25.67;;;12.40;;
64060;SDS011;60147;55.036;73.242;2024-02-28T01:24:11;26.92;;;12.80;;
64060;SDS011;60147;55.036;73.242;2024-02-28T01:26:37;23.50;;;12.52;;
64060;SDS011;60147;55.036;73.242;2024-02-28T01:29:03;28.23;;;12.43;;
64060;SDS011;60147;55.036;73.242;2024-02-28T01:31:29;26.63;;;12.57;;
64060;SDS011;60147;55.036;73.242;2024-02-28T01:33:55;19.27;;;11.32;;
64060;SDS011;60147;55.036;73.242;2024-02-28T01:36:21;27.08;;;12.38;;
64060;SDS011;60147;55.036;73.242;2024-02-28T01:38:47;25.40;;;11.77;;
64060;SDS011;60147;55.036;73.242;2024-02-28T01:41:13;23.65;;;12.90;;
64060;SDS011;60147;55.036;73.242;2024-02-28T01:43:39;25.15;;;11.77;;
64060;SDS011;60147;55.036;73.242;2024-02-28T01:46:10;25.52;;;12.88;;
64060;SDS011;60147;55.036;73.242;2024-02-28T01:48:37;26.42;;;12.10;;
64060;SDS011;60147;55.036;73.242;2024-02-28T01:51:03;25.50;;;12.32;;
64060;SDS011;60147;55.036;73.242;2024-02-28T01:53:30;22.75;;;11.65;;
64060;SDS011;60147;55.036;73.242;2024-02-28T01:55:56;25.30;;;12.02;;
64060;SDS011;60147;55.036;73.242;2024-02-28T01:58:22;31.45;;;13.10;;
64060;SDS011;60147;55.036;73.242;2024-02-28T02:00:49;32.90;;;13.38;;
64060;SDS011;60147;55.036;73.242;2024-02-28T02:03:15;37.03;;;13.77;;
64060;SDS011;60147;55.036;73.242;2024-02-28T02:05:41;40.20;;;17.00;;
64060;SDS011;60147;55.036;73.242;2024-02-28T02:08:07;44.13;;;19.75;;
64060;SDS011;60147;55.036;73.242;2024-02-28T02:10:33;40.15;;;17.50;;
64060;SDS011;60147;55.036;73.242;2024-02-28T02:13:06;37.22;;;18.42;;
64060;SDS011;60147;55.036;73.242;2024-02-28T02:15:32;30.10;;;15.57;;
64060;SDS011;60147;55.036;73.242;2024-02-28T02:17:58;28.25;;;14.60;;
64060;SDS011;60147;55.036;73.242;2024-02-28T02:20:24;30.02;;;14.40;;
64060;SDS011;60147;55.036;73.242;2024-02-28T02:22:52;30.50;;;14.45;;
64060;SDS011;60147;55.036;73.242;2024-02-28T02:25:18;26.33;;;12.30;;
64060;SDS011;60147;55.036;73.242;2024-02-28T02:27:44;31.17;;;12.95;;
64060;SDS011;60147;55.036;73.242;2024-02-28T02:30:10;30.05;;;13.48;;
64060;SDS011;60147;55.036;73.242;2024-02-28T02:32:37;26.27;;;12.48;;
64060;SDS011;60147;55.036;73.242;2024-02-28T02:35:03;27.23;;;12.45;;
64060;SDS011;60147;55.036;73.242;2024-02-28T02:37:29;23.27;;;10.57;;
64060;SDS011;60147;55.036;73.242;2024-02-28T02:39:55;23.35;;;11.82;;
64060;SDS011;60147;55.036;73.242;2024-02-28T02:42:21;27.23;;;12.30;;
64060;SDS011;60147;55.036;73.242;2024-02-28T02:44:47;19.83;;;9.95;;
64060;SDS011;60147;55.036;73.242;2024-02-28T02:47:13;19.73;;;8.48;;
64060;SDS011;60147;55.036;73.242;2024-02-28T02:49:39;587.33;;;49.08;;
64060;SDS011;60147;55.036;73.242;2024-02-28T02:52:05;254.35;;;24.02;;
64060;SDS011;60147;55.036;73.242;2024-02-28T02:54:31;194.10;;;34.30;;
64060;SDS011;60147;55.036;73.242;2024-02-28T02:56:57;153.38;;;27.38;;
64060;SDS011;60147;55.036;73.242;2024-02-28T02:59:23;22.23;;;9.68;;
64060;SDS011;60147;55.036;73.242;2024-02-28T03:01:49;26.90;;;17.17;;
64060;SDS011;60147;55.036;73.242;2024-02-28T03:04:15;18.90;;;13.25;;
64060;SDS011;60147;55.036;73.242;2024-02-28T03:06:41;24.35;;;12.77;;
64060;SDS011;60147;55.036;73.242;2024-02-28T03:09:07;23.55;;;12.40;;
64060;SDS011;60147;55.036;73.242;2024-02-28T03:11:33;24.13;;;11.38;;
64060;SDS011;60147;55.036;73.242;2024-02-28T03:14:01;25.67;;;11.52;;
64060;SDS011;60147;55.036;73.242;2024-02-28T03:16:27;22.23;;;11.30;;
64060;SDS011;60147;55.036;73.242;2024-02-28T03:18:54;23.83;;;9.90;;
64060;SDS011;60147;55.036;73.242;2024-02-28T03:21:21;26.38;;;12.52;;
64060;SDS011;60147;55.036;73.242;2024-02-28T03:23:47;23.13;;;11.85;;
64060;SDS011;60147;55.036;73.242;2024-02-28T03:26:13;26.27;;;12.95;;
64060;SDS011;60147;55.036;73.242;2024-02-28T03:28:39;21.20;;;11.32;;
64060;SDS011;60147;55.036;73.242;2024-02-28T03:31:05;25.42;;;13.38;;
64060;SDS011;60147;55.036;73.242;2024-02-28T03:33:31;24.38;;;12.00;;
64060;SDS011;60147;55.036;73.242;2024-02-28T03:35:59;22.55;;;11.63;;
64060;SDS011;60147;55.036;73.242;2024-02-28T03:38:25;25.02;;;14.82;;
64060;SDS011;60147;55.036;73.242;2024-02-28T03:40:51;21.98;;;9.98;;
64060;SDS011;60147;55.036;73.242;2024-02-28T03:43:17;21.42;;;11.75;;
64060;SDS011;60147;55.036;73.242;2024-02-28T03:45:43;22.90;;;12.48;;
64060;SDS011;60147;55.036;73.242;2024-02-28T03:48:09;16.92;;;8.82;;
64060;SDS011;60147;55.036;73.242;2024-02-28T03:50:35;22.65;;;11.50;;
64060;SDS011;60147;55.036;73.242;2024-02-28T03:53:01;21.67;;;11.63;;
64060;SDS011;60147;55.036;73.242;2024-02-28T03:55:27;27.45;;;14.10;;
64060;SDS011;60147;55.036;73.242;2024-02-28T03:57:53;23.98;;;10.40;;
64060;SDS011;60147;55.036;73.242;2024-02-28T04:00:20;23.48;;;12.25;;
64060;SDS011;60147;55.036;73.242;2024-02-28T04:02:46;18.83;;;9.30;;
64060;SDS011;60147;55.036;73.242;2024-02-28T04:05:12;22.33;;;9.30;;
64060;SDS011;60147;55.036;73.242;2024-02-28T04:07:38;20.98;;;10.38;;
64060;SDS011;60147;55.036;73.242;2024-02-28T04:10:04;13.55;;;6.57;;
64060;SDS011;60147;55.036;73.242;2024-02-28T04:12:31;21.17;;;8.65;;
64060;SDS011;60147;55.036;73.242;2024-02-28T04:14:57;14.73;;;8.75;;
64060;SDS011;60147;55.036;73.242;2024-02-28T04:17:23;22.42;;;11.52;;
64060;SDS011;60147;55.036;73.242;2024-02-28T04:19:49;17.77;;;8.20;;
64060;SDS011;60147;55.036;73.242;2024-02-28T04:22:15;15.73;;;7.03;;
64060;SDS011;60147;55.036;73.242;2024-02-28T04:24:41;12.15;;;7.85;;
64060;SDS011;60147;55.036;73.242;2024-02-28T04:27:07;13.55;;;6.88;;
64060;SDS011;60147;55.036;73.242;2024-02-28T04:29:35;12.82;;;5.80;;
64060;SDS011;60147;55.036;73.242;2024-02-28T04:32:20;19.13;;;8.73;;
64060;SDS011;60147;55.036;73.242;2024-02-28T04:34:46;15.68;;;7.05;;
64060;SDS011;60147;55.036;73.242;2024-02-28T04:37:11;16.48;;;9.13;;
64060;SDS011;60147;55.036;73.242;2024-02-28T04:39:37;16.88;;;8.88;;
64060;SDS011;60147;55.036;73.242;2024-02-28T04:42:03;15.15;;;6.22;;
64060;SDS011;60147;55.036;73.242;2024-02-28T04:44:29;15.43;;;9.82;;
64060;SDS011;60147;55.036;73.242;2024-02-28T04:46:55;13.20;;;6.85;;
64060;SDS011;60147;55.036;73.242;2024-02-28T04:49:21;17.65;;;7.95;;
64060;SDS011;60147;55.036;73.242;2024-02-28T04:51:48;14.73;;;6.47;;
64060;SDS011;60147;55.036;73.242;2024-02-28T04:54:14;11.85;;;7.35;;
64060;SDS011;60147;55.036;73.242;2024-02-28T04:56:59;14.95;;;6.13;;
64060;SDS011;60147;55.036;73.242;2024-02-28T04:59:25;14.00;;;6.13;;
64060;SDS011;60147;55.036;73.242;2024-02-28T05:01:51;12.45;;;7.53;;
64060;SDS011;60147;55.036;73.242;2024-02-28T05:04:17;11.88;;;5.43;;
64060;SDS011;60147;55.036;73.242;2024-02-28T05:06:43;11.75;;;4.38;;
64060;SDS011;60147;55.036;73.242;2024-02-28T05:09:09;12.32;;;5.60;;
64060;SDS011;60147;55.036;73.242;2024-02-28T05:11:35;16.67;;;5.82;;
64060;SDS011;60147;55.036;73.242;2024-02-28T05:14:01;16.23;;;7.13;;
64060;SDS011;60147;55.036;73.242;2024-02-28T05:16:27;17.00;;;9.43;;
64060;SDS011;60147;55.036;73.242;2024-02-28T05:18:53;16.17;;;7.78;;
64060;SDS011;60147;55.036;73.242;2024-02-28T05:21:19;17.20;;;7.93;;
64060;SDS011;60147;55.036;73.242;2024-02-28T05:23:45;20.15;;;9.07;;
64060;SDS011;60147;55.036;73.242;2024-02-28T05:26:11;17.67;;;9.05;;
64060;SDS011;60147;55.036;73.242;2024-02-28T05:28:38;17.13;;;8.18;;
64060;SDS011;60147;55.036;73.242;2024-02-28T05:31:18;16.60;;;7.93;;
64060;SDS011;60147;55.036;73.242;2024-02-28T05:33:45;18.17;;;7.97;;
64060;SDS011;60147;55.036;73.242;2024-02-28T05:36:11;20.65;;;8.85;;
64060;SDS011;60147;55.036;73.242;2024-02-28T05:38:37;15.70;;;8.13;;
64060;SDS011;60147;55.036;73.242;2024-02-28T05:41:03;14.27;;;7.00;;
64060;SDS011;60147;55.036;73.242;2024-02-28T05:46:15;14.68;;;7.95;;
64060;SDS011;60147;55.036;73.242;2024-02-28T05:48:41;18.83;;;7.82;;
64060;SDS011;60147;55.036;73.242;2024-02-28T05:51:07;17.80;;;6.72;;
64060;SDS011;60147;55.036;73.242;2024-02-28T05:53:34;19.00;;;8.65;;
64060;SDS011;60147;55.036;73.242;2024-02-28T05:56:07;15.43;;;8.00;;
64060;SDS011;60147;55.036;73.242;2024-02-28T05:58:40;13.20;;;7.53;;
64060;SDS011;60147;55.036;73.242;2024-02-28T06:01:06;16.05;;;7.55;;
64060;SDS011;60147;55.036;73.242;2024-02-28T06:03:33;14.30;;;7.93;;
64060;SDS011;60147;55.036;73.242;2024-02-28T06:05:59;15.98;;;8.30;;
64060;SDS011;60147;55.036;73.242;2024-02-28T06:08:25;22.52;;;8.15;;
64060;SDS011;60147;55.036;73.242;2024-02-28T06:10:51;16.77;;;7.95;;
64060;SDS011;60147;55.036;73.242;2024-02-28T06:13:18;16.00;;;8.85;;
64060;SDS011;60147;55.036;73.242;2024-02-28T06:15:44;18.35;;;8.05;;
64060;SDS011;60147;55.036;73.242;2024-02-28T06:18:10;18.10;;;8.15;;
64060;SDS011;60147;55.036;73.242;2024-02-28T06:20:36;17.02;;;7.50;;
64060;SDS011;60147;55.036;73.242;2024-02-28T06:23:03;17.27;;;7.65;;
64060;SDS011;60147;55.036;73.242;2024-02-28T06:25:29;13.45;;;7.40;;
64060;SDS011;60147;55.036;73.242;2024-02-28T06:27:55;16.08;;;7.70;;
64060;SDS011;60147;55.036;73.242;2024-02-28T06:30:21;19.08;;;7.95;;
64060;SDS011;60147;55.036;73.242;2024-02-28T06:32:47;16.23;;;7.50;;
64060;SDS011;60147;55.036;73.242;2024-02-28T06:35:13;20.13;;;8.77;;
64060;SDS011;60147;55.036;73.242;2024-02-28T06:37:39;15.57;;;8.00;;
64060;SDS011;60147;55.036;73.242;2024-02-28T06:40:05;14.50;;;7.63;;
64060;SDS011;60147;55.036;73.242;2024-02-28T06:42:34;15.07;;;7.80;;
64060;SDS011;60147;55.036;73.242;2024-02-28T06:45:02;15.45;;;7.18;;
64060;SDS011;60147;55.036;73.242;2024-02-28T06:47:30;17.88;;;8.32;;
64060;SDS011;60147;55.036;73.242;2024-02-28T06:49:56;15.77;;;7.70;;
64060;SDS011;60147;55.036;73.242;2024-02-28T06:52:22;15.27;;;7.80;;
64060;SDS011;60147;55.036;73.242;2024-02-28T06:54:48;17.38;;;8.07;;
64060;SDS011;60147;55.036;73.242;2024-02-28T06:57:32;14.45;;;6.78;;
64060;SDS011;60147;55.036;73.242;2024-02-28T07:02:45;16.90;;;7.40;;
64060;SDS011;60147;55.036;73.242;2024-02-28T07:05:12;20.60;;;7.38;;
64060;SDS011;60147;55.036;73.242;2024-02-28T07:07:38;14.48;;;6.93;;
64060;SDS011;60147;55.036;73.242;2024-02-28T07:10:04;13.57;;;6.68;;
64060;SDS011;60147;55.036;73.242;2024-02-28T07:12:30;17.50;;;7.78;;
64060;SDS011;60147;55.036;73.242;2024-02-28T07:14:56;19.13;;;7.70;;
64060;SDS011;60147;55.036;73.242;2024-02-28T07:17:22;12.32;;;6.13;;
64060;SDS011;60147;55.036;73.242;2024-02-28T07:19:48;15.63;;;5.60;;
64060;SDS011;60147;55.036;73.242;2024-02-28T07:22:14;10.73;;;5.47;;
64060;SDS011;60147;55.036;73.242;2024-02-28T07:24:40;15.75;;;6.65;;
64060;SDS011;60147;55.036;73.242;2024-02-28T07:27:06;11.52;;;5.88;;
64060;SDS011;60147;55.036;73.242;2024-02-28T07:29:32;14.77;;;6.30;;
64060;SDS011;60147;55.036;73.242;2024-02-28T07:31:59;16.27;;;7.53;;
64060;SDS011;60147;55.036;73.242;2024-02-28T07:34:28;11.90;;;6.50;;
64060;SDS011;60147;55.036;73.242;2024-02-28T07:36:54;10.15;;;5.07;;
64060;SDS011;60147;55.036;73.242;2024-02-28T07:39:20;18.25;;;7.18;;
64060;SDS011;60147;55.036;73.242;2024-02-28T07:41:46;12.15;;;5.60;;
64060;SDS011;60147;55.036;73.242;2024-02-28T07:44:12;14.10;;;5.95;;
64060;SDS011;60147;55.036;73.242;2024-02-28T07:46:40;12.20;;;4.82;;
64060;SDS011;60147;55.036;73.242;2024-02-28T07:49:06;10.25;;;4.63;;
64060;SDS011;60147;55.036;73.242;2024-02-28T07:51:32;12.55;;;6.35;;
64060;SDS011;60147;55.036;73.242;2024-02-28T07:53:58;9.25;;;5.18;;
64060;SDS011;60147;55.036;73.242;2024-02-28T07:56:24;8.88;;;5.30;;
64060;SDS011;60147;55.036;73.242;2024-02-28T07:58:50;9.32;;;5.22;;
64060;SDS011;60147;55.036;73.242;2024-02-28T08:01:17;12.82;;;6.20;;
64060;SDS011;60147;55.036;73.242;2024-02-28T08:03:43;11.25;;;5.30;;
64060;SDS011;60147;55.036;73.242;2024-02-28T08:06:10;13.10;;;6.75;;
64060;SDS011;60147;55.036;73.242;2024-02-28T08:08:36;15.93;;;7.43;;
64060;SDS011;60147;55.036;73.242;2024-02-28T08:11:02;17.27;;;7.35;;
64060;SDS011;60147;55.036;73.242;2024-02-28T08:13:29;10.35;;;5.40;;
64060;SDS011;60147;55.036;73.242;2024-02-28T08:15:55;10.15;;;5.35;;
64060;SDS011;60147;55.036;73.242;2024-02-28T08:18:21;18.83;;;7.57;;
64060;SDS011;60147;55.036;73.242;2024-02-28T08:20:47;13.77;;;7.30;;
64060;SDS011;60147;55.036;73.242;2024-02-28T08:23:13;17.40;;;7.75;;
64060;SDS011;60147;55.036;73.242;2024-02-28T08:25:39;14.70;;;6.72;;
64060;SDS011;60147;55.036;73.242;2024-02-28T08:28:05;13.10;;;6.82;;
64060;SDS011;60147;55.036;73.242;2024-02-28T08:30:31;14.40;;;7.25;;
64060;SDS011;60147;55.036;73.242;2024-02-28T08:35:44;17.08;;;7.53;;
64060;SDS011;60147;55.036;73.242;2024-02-28T08:40:55;9.57;;;5.30;;
64060;SDS011;60147;55.036;73.242;2024-02-28T08:43:21;10.52;;;5.28;;
64060;SDS011;60147;55.036;73.242;2024-02-28T08:45:47;8.25;;;4.38;;
64060;SDS011;60147;55.036;73.242;2024-02-28T08:48:16;12.18;;;5.13;;
64060;SDS011;60147;55.036;73.242;2024-02-28T08:50:41;12.77;;;4.85;;
64060;SDS011;60147;55.036;73.242;2024-02-28T08:53:07;10.60;;;5.97;;
64060;SDS011;60147;55.036;73.242;2024-02-28T08:55:34;10.43;;;5.10;;
64060;SDS011;60147;55.036;73.242;2024-02-28T08:58:00;12.27;;;5.20;;
64060;SDS011;60147;55.036;73.242;2024-02-28T09:00:44;7.70;;;4.90;;
64060;SDS011;60147;55.036;73.242;2024-02-28T09:03:10;12.48;;;6.43;;
64060;SDS011;60147;55.036;73.242;2024-02-28T09:05:36;11.15;;;5.65;;
64060;SDS011;60147;55.036;73.242;2024-02-28T09:08:02;11.38;;;4.70;;
64060;SDS011;60147;55.036;73.242;2024-02-28T09:10:28;16.15;;;6.22;;
64060;SDS011;60147;55.036;73.242;2024-02-28T09:15:43;9.00;;;4.20;;
64060;SDS011;60147;55.036;73.242;2024-02-28T09:18:09;15.88;;;6.88;;
64060;SDS011;60147;55.036;73.242;2024-02-28T09:20:35;15.10;;;6.97;;
64060;SDS011;60147;55.036;73.242;2024-02-28T09:23:01;14.05;;;6.20;;
64060;SDS011;60147;55.036;73.242;2024-02-28T09:25:27;13.63;;;6.60;;
64060;SDS011;60147;55.036;73.242;2024-02-28T09:27:53;8.60;;;4.72;;
64060;SDS011;60147;55.036;73.242;2024-02-28T09:30:20;10.88;;;5.18;;
64060;SDS011;60147;55.036;73.242;2024-02-28T09:32:46;10.13;;;5.00;;
64060;SDS011;60147;55.036;73.242;2024-02-28T09:35:13;11.75;;;5.70;;
64060;SDS011;60147;55.036;73.242;2024-02-28T09:37:38;9.93;;;5.07;;
64060;SDS011;60147;55.036;73.242;2024-02-28T09:40:07;9.90;;;4.50;;
64060;SDS011;60147;55.036;73.242;2024-02-28T09:42:34;8.45;;;4.10;;
64060;SDS011;60147;55.036;73.242;2024-02-28T09:45:00;11.27;;;4.55;;
64060;SDS011;60147;55.036;73.242;2024-02-28T09:47:29;12.07;;;5.68;;
64060;SDS011;60147;55.036;73.242;2024-02-28T09:49:55;13.73;;;6.63;;
64060;SDS011;60147;55.036;73.242;2024-02-28T09:52:23;16.20;;;5.53;;
64060;SDS011;60147;55.036;73.242;2024-02-28T09:54:50;11.20;;;5.57;;
64060;SDS011;60147;55.036;73.242;2024-02-28T09:57:16;13.18;;;5.25;;
64060;SDS011;60147;55.036;73.242;2024-02-28T09:59:43;10.93;;;4.68;;
64060;SDS011;60147;55.036;73.242;2024-02-28T10:02:09;10.20;;;4.90;;
64060;SDS011;60147;55.036;73.242;2024-02-28T10:04:36;9.57;;;5.63;;
64060;SDS011;60147;55.036;73.242;2024-02-28T10:07:12;10.32;;;5.20;;
64060;SDS011;60147;55.036;73.242;2024-02-28T10:09:41;14.63;;;6.20;;
64060;SDS011;60147;55.036;73.242;2024-02-28T10:12:07;11.30;;;5.22;;
64060;SDS011;60147;55.036;73.242;2024-02-28T10:14:34;10.38;;;4.50;;
64060;SDS011;60147;55.036;73.242;2024-02-28T10:17:00;9.05;;;4.65;;
64060;SDS011;60147;55.036;73.242;2024-02-28T10:19:26;11.90;;;4.40;;
64060;SDS011;60147;55.036;73.242;2024-02-28T10:21:52;12.38;;;4.93;;
64060;SDS011;60147;55.036;73.242;2024-02-28T10:24:18;8.38;;;4.22;;
64060;SDS011;60147;55.036;73.242;2024-02-28T10:26:45;10.40;;;5.20;;
64060;SDS011;60147;55.036;73.242;2024-02-28T10:29:13;11.60;;;4.30;;
64060;SDS011;60147;55.036;73.242;2024-02-28T10:31:39;13.27;;;5.35;;
64060;SDS011;60147;55.036;73.242;2024-02-28T10:34:06;11.30;;;4.45;;
64060;SDS011;60147;55.036;73.242;2024-02-28T10:36:33;12.98;;;5.63;;
64060;SDS011;60147;55.036;73.242;2024-02-28T10:39:00;11.00;;;4.95;;
64060;SDS011;60147;55.036;73.242;2024-02-28T10:41:26;13.85;;;4.78;;
64060;SDS011;60147;55.036;73.242;2024-02-28T10:43:53;9.65;;;4.30;;
64060;SDS011;60147;55.036;73.242;2024-02-28T10:46:20;10.00;;;4.85;;
64060;SDS011;60147;55.036;73.242;2024-02-28T10:48:49;9.18;;;4.82;;
64060;SDS011;60147;55.036;73.242;2024-02-28T10:51:15;8.80;;;4.78;;
64060;SDS011;60147;55.036;73.242;2024-02-28T10:53:41;10.48;;;4.63;;
64060;SDS011;60147;55.036;73.242;2024-02-28T10:56:09;9.90;;;4.65;;
64060;SDS011;60147;55.036;73.242;2024-02-28T10:58:36;10.85;;;5.40;;
64060;SDS011;60147;55.036;73.242;2024-02-28T11:01:05;10.23;;;5.07;;
64060;SDS011;60147;55.036;73.242;2024-02-28T11:03:31;11.70;;;5.45;;
64060;SDS011;60147;55.036;73.242;2024-02-28T11:05:57;9.68;;;5.28;;
64060;SDS011;60147;55.036;73.242;2024-02-28T11:08:24;13.70;;;5.20;;
64060;SDS011;60147;55.036;73.242;2024-02-28T11:10:54;16.77;;;6.53;;
64060;SDS011;60147;55.036;73.242;2024-02-28T11:13:23;12.10;;;5.72;;
64060;SDS011;60147;55.036;73.242;2024-02-28T11:15:50;15.15;;;5.68;;
64060;SDS011;60147;55.036;73.242;2024-02-28T11:18:16;11.25;;;4.88;;
64060;SDS011;60147;55.036;73.242;2024-02-28T11:20:43;14.13;;;6.03;;
64060;SDS011;60147;55.036;73.242;2024-02-28T11:23:10;12.40;;;5.38;;
64060;SDS011;60147;55.036;73.242;2024-02-28T11:25:36;15.68;;;5.78;;
64060;SDS011;60147;55.036;73.242;2024-02-28T11:28:20;13.15;;;5.22;;
64060;SDS011;60147;55.036;73.242;2024-02-28T11:30:49;10.45;;;4.63;;
64060;SDS011;60147;55.036;73.242;2024-02-28T11:33:16;10.48;;;4.70;;
64060;SDS011;60147;55.036;73.242;2024-02-28T11:35:44;13.10;;;5.57;;
64060;SDS011;60147;55.036;73.242;2024-02-28T11:38:10;15.98;;;6.00;;
64060;SDS011;60147;55.036;73.242;2024-02-28T11:40:38;19.17;;;6.07;;
64060;SDS011;60147;55.036;73.242;2024-02-28T11:43:04;16.60;;;6.75;;
64060;SDS011;60147;55.036;73.242;2024-02-28T11:45:30;16.60;;;7.25;;
64060;SDS011;60147;55.036;73.242;2024-02-28T11:47:56;16.50;;;5.78;;
64060;SDS011;60147;55.036;73.242;2024-02-28T11:50:22;23.40;;;8.32;;
64060;SDS011;60147;55.036;73.242;2024-02-28T11:52:49;26.83;;;8.48;;
64060;SDS011;60147;55.036;73.242;2024-02-28T11:55:15;20.70;;;7.22;;
64060;SDS011;60147;55.036;73.242;2024-02-28T11:57:45;21.77;;;6.47;;
64060;SDS011;60147;55.036;73.242;2024-02-28T12:00:12;21.05;;;6.28;;
64060;SDS011;60147;55.036;73.242;2024-02-28T12:02:41;19.75;;;5.95;;
64060;SDS011;60147;55.036;73.242;2024-02-28T12:05:07;17.02;;;6.38;;
64060;SDS011;60147;55.036;73.242;2024-02-28T12:10:14;12.65;;;5.47;;
64060;SDS011;60147;55.036;73.242;2024-02-28T12:12:40;14.07;;;5.97;;
64060;SDS011;60147;55.036;73.242;2024-02-28T12:15:08;20.08;;;7.68;;
64060;SDS011;60147;55.036;73.242;2024-02-28T12:17:35;17.27;;;7.30;;
64060;SDS011;60147;55.036;73.242;2024-02-28T12:20:02;15.75;;;7.05;;
64060;SDS011;60147;55.036;73.242;2024-02-28T12:22:28;18.10;;;6.63;;
64060;SDS011;60147;55.036;73.242;2024-02-28T12:24:54;14.35;;;6.80;;
64060;SDS011;60147;55.036;73.242;2024-02-28T12:27:20;15.93;;;6.47;;
64060;SDS011;60147;55.036;73.242;2024-02-28T12:30:04;14.50;;;5.88;;
64060;SDS011;60147;55.036;73.242;2024-02-28T12:32:30;13.38;;;5.75;;
64060;SDS011;60147;55.036;73.242;2024-02-28T12:34:56;17.20;;;5.93;;
64060;SDS011;60147;55.036;73.242;2024-02-28T12:37:22;16.00;;;6.18;;
64060;SDS011;60147;55.036;73.242;2024-02-28T12:39:48;12.57;;;5.97;;
64060;SDS011;60147;55.036;73.242;2024-02-28T12:42:14;11.52;;;5.15;;
64060;SDS011;60147;55.036;73.242;2024-02-28T12:47:25;10.63;;;5.32;;
64060;SDS011;60147;55.036;73.242;2024-02-28T12:49:51;13.32;;;5.60;;
64060;SDS011;60147;55.036;73.242;2024-02-28T12:52:17;13.88;;;5.90;;
64060;SDS011;60147;55.036;73.242;2024-02-28T12:54:43;14.90;;;6.40;;
64060;SDS011;60147;55.036;73.242;2024-02-28T12:57:25;15.93;;;6.03;;
64060;SDS011;60147;55.036;73.242;2024-02-28T12:59:51;19.63;;;5.90;;
64060;SDS011;60147;55.036;73.242;2024-02-28T13:02:17;13.80;;;6.25;;
64060;SDS011;60147;55.036;73.242;2024-02-28T13:04:46;19.20;;;6.57;;
64060;SDS011;60147;55.036;73.242;2024-02-28T13:07:12;14.70;;;6.45;;
64060;SDS011;60147;55.036;73.242;2024-02-28T13:09:38;19.13;;;7.03;;
64060;SDS011;60147;55.036;73.242;2024-02-28T13:12:24;19.70;;;7.28;;
64060;SDS011;60147;55.036;73.242;2024-02-28T13:14:52;24.48;;;8.85;;
64060;SDS011;60147;55.036;73.242;2024-02-28T13:17:19;46.55;;;12.60;;
64060;SDS011;60147;55.036;73.242;2024-02-28T13:19:45;73.72;;;18.40;;
64060;SDS011;60147;55.036;73.242;2024-02-28T13:22:12;81.95;;;18.33;;
64060;SDS011;60147;55.036;73.242;2024-02-28T13:24:38;64.78;;;17.90;;
64060;SDS011;60147;55.036;73.242;2024-02-28T13:27:04;48.33;;;14.55;;
64060;SDS011;60147;55.036;73.242;2024-02-28T13:29:30;40.03;;;14.00;;
64060;SDS011;60147;55.036;73.242;2024-02-28T13:31:58;33.10;;;11.70;;
64060;SDS011;60147;55.036;73.242;2024-02-28T13:34:24;38.75;;;11.93;;
64060;SDS011;60147;55.036;73.242;2024-02-28T13:36:53;25.50;;;9.52;;
64060;SDS011;60147;55.036;73.242;2024-02-28T13:39:20;22.95;;;8.77;;
64060;SDS011;60147;55.036;73.242;2024-02-28T13:41:52;24.50;;;8.45;;
64060;SDS011;60147;55.036;73.242;2024-02-28T13:44:18;20.75;;;7.90;;
64060;SDS011;60147;55.036;73.242;2024-02-28T13:46:47;19.88;;;8.35;;
64060;SDS011;60147;55.036;73.242;2024-02-28T13:49:13;21.02;;;7.75;;
64060;SDS011;60147;55.036;73.242;2024-02-28T13:51:41;23.00;;;8.75;;
64060;SDS011;60147;55.036;73.242;2024-02-28T13:54:29;21.13;;;8.88;;
64060;SDS011;60147;55.036;73.242;2024-02-28T13:56:55;18.05;;;7.70;;
64060;SDS011;60147;55.036;73.242;2024-02-28T13:59:21;25.77;;;8.93;;
64060;SDS011;60147;55.036;73.242;2024-02-28T14:01:47;20.42;;;8.18;;
64060;SDS011;60147;55.036;73.242;2024-02-28T14:04:14;23.90;;;8.77;;
64060;SDS011;60147;55.036;73.242;2024-02-28T14:06:40;20.20;;;8.52;;
64060;SDS011;60147;55.036;73.242;2024-02-28T14:09:07;20.48;;;9.15;;
64060;SDS011;60147;55.036;73.242;2024-02-28T14:11:33;23.00;;;9.95;;
64060;SDS011;60147;55.036;73.242;2024-02-28T14:13:59;19.20;;;9.77;;
64060;SDS011;60147;55.036;73.242;2024-02-28T14:16:25;22.38;;;10.00;;
64060;SDS011;60147;55.036;73.242;2024-02-28T14:18:51;19.63;;;9.50;;
64060;SDS011;60147;55.036;73.242;2024-02-28T14:21:18;34.78;;;12.70;;
64060;SDS011;60147;55.036;73.242;2024-02-28T14:23:45;28.65;;;11.45;;
64060;SDS011;60147;55.036;73.242;2024-02-28T14:26:12;33.45;;;10.75;;
64060;SDS011;60147;55.036;73.242;2024-02-28T14:28:38;26.15;;;9.02;;
64060;SDS011;60147;55.036;73.242;2024-02-28T14:31:04;21.95;;;8.77;;
64060;SDS011;60147;55.036;73.242;2024-02-28T14:33:30;24.02;;;8.52;;
64060;SDS011;60147;55.036;73.242;2024-02-28T14:35:57;25.70;;;10.18;;